Home > Products > Valid Products > TAF

000
FTUS46 KMTR 300308 AAA
TAFSFO
TAF AMD
KSFO 300308Z 3003/3106 30015KT P6SM FEW004
     FM300400 29007KT P6SM FEW004
     FM301200 28004KT P6SM FEW005
     FM301700 34005KT P6SM FEW008
     FM302100 30015KT P6SM FEW010 SCT250
     FM310400 30010KT P6SM SCT250=



000
FTUS46 KMTR 292348 AAA
TAFSNS
TAF AMD
KSNS 292348Z 3000/3024 30016KT P6SM BKN006
     FM300300 29009KT P6SM OVC005
     FM300600 VRB03KT 5SM BR OVC003
     FM301700 VRB03KT P6SM FEW007
     FM301900 30010KT P6SM SCT250
     FM302100 29015KT P6SM SKC=



000
FTUS46 KMTR 292348 AAA
TAFSNS
TAF AMD
KSNS 292348Z 3000/3024 30016KT P6SM BKN006
     FM300300 29009KT P6SM OVC005
     FM300600 VRB03KT 5SM BR OVC003
     FM301700 VRB03KT P6SM FEW007
     FM301900 30010KT P6SM SCT250
     FM302100 29015KT P6SM SKC=



000
FTUS46 KMTR 292336
TAFLVK
TAF
KLVK 292336Z 3000/3024 28012KT P6SM SKC
     FM300300 28007KT P6SM SKC
     FM300500 00000KT P6SM SKC
     FM301800 25005KT P6SM SKC
     FM302200 29014KT P6SM SKC=



000
FTUS46 KMTR 292336
TAFMRY
TAF
KMRY 292336Z 3000/3024 23008KT P6SM SKC
     FM300300 VRB04KT P6SM SKC
     FM300500 VRB03KT 4SM BR OVC003
      TEMPO 3012/3016 1/4SM FG VV001
     FM301800 29005KT P6SM FEW008
     FM302000 25009KT P6SM SCT250=



000
FTUS46 KMTR 292336
TAFSNS
TAF
KSNS 292336Z 3000/3024 30016KT P6SM SKC
     FM300100 300104KT P6SM BKN006
     FM300300 29009KT P6SM OVC005
     FM300600 VRB03KT 5SM BR OVC003
     FM301700 VRB03KT P6SM FEW007
     FM301900 30010KT P6SM SCT250
     FM302100 29015KT P6SM SKC=



000
FTUS46 KMTR 292336
TAFSJC
TAF
KSJC 292336Z 3000/3024 30014KT P6SM SKC
     FM300500 23005KT P6SM SKC
     FM300700 VRB04KT P6SM SKC
     FM301900 30010KT P6SM SCT250
     FM302200 30012KT P6SM SCT250=



000
FTUS46 KMTR 292336
TAFOAK
TAF
KOAK 292336Z 3000/3106 30015KT P6SM SKC
     FM300400 30005KT P6SM SKC
     FM301200 30004KT P6SM SCT010
     FM301700 29008KT P6SM FEW010
     FM302100 30015KT P6SM FEW010 SCT250
     FM310400 30010KT P6SM SCT250=



000
FTUS46 KMTR 292336
TAFSTS
TAF
KSTS 292336Z 3000/3024 16010KT P6SM SKC
     FM300400 16005KT P6SM SKC
     FM301000 00000KT 5SM BR OVC003
     FM301500 VRB03KT P6SM FEW012
     FM301800 18006KT P6SM SKC
     FM302200 18013KT P6SM SKC=



000
FTUS46 KMTR 292336
TAFSFO
TAF
KSFO 292336Z 3000/3106 30017KT P6SM FEW007
     FM300400 29007KT P6SM SKC
     FM301200 28004KT P6SM FEW010
     FM301700 34005KT P6SM FEW010
     FM302100 30015KT P6SM FEW010 SCT250
     FM310400 30010KT P6SM SCT250=



000
FTUS46 KMTR 291734
TAFMRY
TAF
KMRY 291734Z 2918/3018 00000KT P6SM OVC006
     FM291830 31005KT P6SM SCT006
     FM292000 26008KT P6SM SKC
     FM300300 25003KT P6SM SKC
     FM300500 VRB03KT 4SM BR OVC003=



000
FTUS46 KMTR 291734
TAFSNS
TAF
KSNS 291734Z 2918/3018 VRB03KT P6SM FEW009
     FM291900 29005KT P6SM SKC
     FM292100 30013KT P6SM SKC
     FM300600 30006KT 5SM BR OVC007
     FM301700 VRB03KT P6SM FEW007=



000
FTUS46 KMTR 291734
TAFSFO
TAF
KSFO 291734Z 2918/3024 01005KT P6SM SKC
     FM292100 31016KT P6SM SKC
     FM300400 29007KT P6SM SKC
     FM301200 28004KT P6SM FEW012
     FM301700 34005KT P6SM SCT250
     FM302100 30015KT P6SM FEW250=



000
FTUS46 KMTR 291734
TAFLVK
TAF
KLVK 291734Z 2918/3018 00000KT P6SM SKC
     FM291900 21005KT P6SM SKC
     FM292100 26010KT P6SM SKC
     FM300500 00000KT P6SM SKC=



000
FTUS46 KMTR 291734
TAFOAK
TAF
KOAK 291734Z 2918/3024 30009KT P6SM SKC
     FM292200 30013KT P6SM SKC
     FM300400 30006KT P6SM SKC
     FM301200 29004KT P6SM SCT012
     FM302100 30016KT P6SM FEW012 SCT250=



000
FTUS46 KMTR 291734
TAFSTS
TAF
KSTS 291734Z 2918/3018 VRB03KT P6SM SKC
     FM291900 20009KT P6SM SKC
     FM300300 16005KT P6SM SKC
     FM301000 00000KT 5SM BR OVC004
     FM301500 VRB03KT P6SM FEW012=



000
FTUS46 KMTR 291734
TAFSJC
TAF
KSJC 291734Z 2918/3018 16003KT P6SM SKC
     FM292000 31010KT P6SM SKC
     FM300500 28005KT P6SM SKC
     FM301400 17003KT P6SM FEW015
     FM301700 VRB03KT P6SM SCT250=



000
FTUS46 KMTR 291600 AAB
TAFMRY
TAF AMD
KMRY 291600Z 2916/3012 11003KT 5SM BR BKN006
      TEMPO 2916/2917 1SM BR VV002
     FM291730 VRB03KT P6SM SKC
     FM292000 26008KT P6SM SKC
     FM300300 25003KT P6SM SKC
     FM300500 VRB03KT 4SM BR OVC003=



000
FTUS46 KMTR 291558 AAA
TAFSNS
TAF AMD
KSNS 291558Z 2916/3012 VRB03KT 6SM BR OVC003
     FM291730 29009KT P6SM SKC
     FM292100 30013KT P6SM SKC
     FM300600 30006KT P6SM OVC007=



000
FTUS46 KMTR 291506 AAA
TAFMRY
TAF AMD
KMRY 291506Z 2915/3012 11003KT P6SM BKN006
      TEMPO 2915/2916 1/2SM FG VV002
     FM291700 VRB03KT P6SM SKC
     FM292000 26008KT P6SM SKC
     FM300300 25003KT P6SM SKC
     FM300500 VRB03KT 4SM BR OVC003=



000
FTUS46 KMTR 291506 AAA
TAFMRY
TAF AMD
KMRY 291506Z 2915/3012 11003KT P6SM BKN006
      TEMPO 2915/2916 1/2SM FG VV002
     FM291700 VRB03KT P6SM SKC
     FM292000 26008KT P6SM SKC
     FM300300 25003KT P6SM SKC
     FM300500 VRB03KT 4SM BR OVC003=



000
FTUS46 KMTR 291504 AAA
TAFSFO
TAF AMD
KSFO 291504Z 2915/3018 28005KT P6SM SKC
     FM292100 31016KT P6SM SKC
     FM300400 29010KT P6SM SKC
     FM300900 29005KT P6SM SKC=



000
FTUS46 KMTR 291504 AAA
TAFSFO
TAF AMD
KSFO 291504Z 2915/3018 28005KT P6SM SKC
     FM292100 31016KT P6SM SKC
     FM300400 29010KT P6SM SKC
     FM300900 29005KT P6SM SKC=



000
FTUS46 KMTR 291123
TAFSTS
TAF
KSTS 291123Z 2912/3012 15004KT P6SM SKC
     FM291700 VRB03KT P6SM SKC
     FM291900 20009KT P6SM SKC
     FM300300 16005KT P6SM SKC=



000
FTUS46 KMTR 291123
TAFMRY
TAF
KMRY 291123Z 2912/3012 11003KT P6SM SKC
      TEMPO 2912/2915 1SM BR VV002
     FM291700 VRB03KT P6SM SKC
     FM292000 26008KT P6SM SKC
     FM300300 25003KT P6SM SKC
     FM300500 VRB03KT 4SM BR OVC003=



000
FTUS46 KMTR 291123
TAFSFO
TAF
KSFO 291123Z 2912/3018 28008KT P6SM SKC
     FM291600 04005KT P6SM SKC
     FM292100 31016KT P6SM SKC
     FM300400 29010KT P6SM SKC
     FM300900 29005KT P6SM SKC=



000
FTUS46 KMTR 291123
TAFSNS
TAF
KSNS 291123Z 2912/3012 00000KT 5SM BR OVC003
     FM291600 VRB03KT P6SM SKC
     FM291900 29009KT P6SM SKC
     FM292100 30013KT P6SM SKC
     FM300600 30006KT P6SM OVC007=



000
FTUS46 KMTR 291123
TAFOAK
TAF
KOAK 291123Z 2912/3018 VRB04KT P6SM SKC
     FM291700 25004KT P6SM SKC
     FM292000 30009KT P6SM SKC
     FM292200 30013KT P6SM SKC
     FM300400 30006KT P6SM SKC=



000
FTUS46 KMTR 291123
TAFLVK
TAF
KLVK 291123Z 2912/3012 00000KT P6SM SKC
     FM291900 21005KT P6SM SKC
     FM292100 26010KT P6SM SKC
     FM300500 00000KT P6SM SKC=



000
FTUS46 KMTR 291123
TAFSJC
TAF
KSJC 291123Z 2912/3012 16003KT P6SM SKC
     FM292000 31010KT P6SM SKC
     FM300500 28005KT P6SM SKC=



000
FTUS46 KMTR 290901 AAA
TAFSFO
TAF AMD
KSFO 290901Z 2909/3012 29006KT P6SM SKC
     FM291000 29005KT P6SM FEW010
     FM291600 04005KT P6SM SKC
     FM292100 31016KT P6SM SKC
     FM300400 29010KT P6SM SKC
     FM300900 29005KT P6SM SKC=



000
FTUS46 KMTR 290849 AAA
TAFSNS
TAF AMD
KSNS 290849Z 2909/3006 00000KT 5SM BR BKN005
     FM291600 VRB03KT P6SM SKC
     FM291900 29009KT P6SM SKC
     FM292100 30013KT P6SM SKC
     FM300500 30006KT P6SM SKC=



000
FTUS46 KMTR 290848 AAA
TAFMRY
TAF AMD
KMRY 290848Z 2909/3006 VRB03KT P6SM SKC
      TEMPO 2909/2913 3SM BR VV001
     FM291700 VRB03KT P6SM SKC
     FM292000 26008KT P6SM SKC
     FM300500 00000KT P6SM SKC=



000
FTUS46 KMTR 290848 AAA
TAFMRY
TAF AMD
KMRY 290848Z 2909/3006 VRB03KT P6SM SKC
      TEMPO 2909/2913 3SM BR VV001
     FM291700 VRB03KT P6SM SKC
     FM292000 26008KT P6SM SKC
     FM300500 00000KT P6SM SKC=



000
FTUS46 KMTR 290536
TAFMRY
TAF
KMRY 290536Z 2906/3006 08004KT P6SM SKC
      TEMPO 2913/2916 VRB03KT 1SM BR VV001
     FM291700 VRB03KT P6SM SKC
     FM292000 26008KT P6SM SKC
     FM300500 00000KT P6SM SKC=



000
FTUS46 KMTR 290536
TAFSNS
TAF
KSNS 290536Z 2906/3006 29006KT 6SM HZ SKC
      TEMPO 2906/2910 4SM BR OVC006
     FM291000 00000KT 6SM BR SKC
      TEMPO 2912/2916 VRB03KT 4SM BR OVC004
     FM291700 VRB03KT P6SM SKC
     FM291900 29009KT P6SM SKC
     FM292100 30013KT P6SM SKC
     FM300500 30006KT P6SM SKC=



000
FTUS46 KMTR 290536
TAFSJC
TAF
KSJC 290536Z 2906/3006 23003KT P6SM SKC
     FM290700 00000KT P6SM SKC
     FM292000 31010KT P6SM SKC
     FM300500 28005KT P6SM SKC=



000
FTUS46 KMTR 290536
TAFLVK
TAF
KLVK 290536Z 2906/3006 00000KT P6SM SKC
     FM291900 21005KT P6SM SKC
     FM292100 26010KT P6SM SKC
     FM300500 00000KT P6SM SKC=



000
FTUS46 KMTR 290536
TAFSNS
TAF
KSNS 290536Z 2906/3006 29006KT 6SM HZ SKC
      TEMPO 2906/2910 4SM BR OVC006
     FM291000 00000KT 6SM BR SKC
      TEMPO 2912/2916 VRB03KT 4SM BR OVC004
     FM291700 VRB03KT P6SM SKC
     FM291900 29009KT P6SM SKC
     FM292100 30013KT P6SM SKC
     FM300500 30006KT P6SM SKC=



000
FTUS46 KMTR 290536
TAFLVK
TAF
KLVK 290536Z 2906/3006 00000KT P6SM SKC
     FM291900 21005KT P6SM SKC
     FM292100 26010KT P6SM SKC
     FM300500 00000KT P6SM SKC=



000
FTUS46 KMTR 290536
TAFSTS
TAF
KSTS 290536Z 2906/3006 15004KT P6SM SKC
     FM291200 00000KT 6SM BR SKC
     FM291700 VRB03KT P6SM SKC
     FM291900 20009KT P6SM SKC
     FM300300 16005KT P6SM SKC=



000
FTUS46 KMTR 290536
TAFMRY
TAF
KMRY 290536Z 2906/3006 08004KT P6SM SKC
      TEMPO 2913/2916 VRB03KT 1SM BR VV001
     FM291700 VRB03KT P6SM SKC
     FM292000 26008KT P6SM SKC
     FM300500 00000KT P6SM SKC=



000
FTUS46 KMTR 290536
TAFSJC
TAF
KSJC 290536Z 2906/3006 23003KT P6SM SKC
     FM290700 00000KT P6SM SKC
     FM292000 31010KT P6SM SKC
     FM300500 28005KT P6SM SKC=



000
FTUS46 KMTR 290536
TAFSFO
TAF
KSFO 290536Z 2906/3012 30007KT P6SM FEW180
     FM291000 29005KT P6SM FEW010
     FM291600 04005KT P6SM SKC
     FM292100 31016KT P6SM SKC
     FM300400 29010KT P6SM SKC
     FM300900 29005KT P6SM SKC=



000
FTUS46 KMTR 290536
TAFOAK
TAF
KOAK 290536Z 2906/3012 VRB04KT P6SM FEW180
     FM290900 VRB03KT P6SM FEW010
     FM291700 25004KT P6SM SKC
     FM292000 30009KT P6SM SKC
     FM292200 30013KT P6SM SKC
     FM300400 30006KT P6SM SKC=



000
FTUS46 KMTR 290536
TAFSTS
TAF
KSTS 290536Z 2906/3006 15004KT P6SM SKC
     FM291200 00000KT 6SM BR SKC
     FM291700 VRB03KT P6SM SKC
     FM291900 20009KT P6SM SKC
     FM300300 16005KT P6SM SKC=



000
FTUS46 KMTR 290536
TAFOAK
TAF
KOAK 290536Z 2906/3012 VRB04KT P6SM FEW180
     FM290900 VRB03KT P6SM FEW010
     FM291700 25004KT P6SM SKC
     FM292000 30009KT P6SM SKC
     FM292200 30013KT P6SM SKC
     FM300400 30006KT P6SM SKC=



000
FTUS46 KMTR 290536
TAFSFO
TAF
KSFO 290536Z 2906/3012 30007KT P6SM FEW180
     FM291000 29005KT P6SM FEW010
     FM291600 04005KT P6SM SKC
     FM292100 31016KT P6SM SKC
     FM300400 29010KT P6SM SKC
     FM300900 29005KT P6SM SKC=



000
FTUS46 KMTR 290317 AAA
TAFSFO
TAF AMD
KSFO 290317Z 2903/3006 30013KT P6SM FEW180
     FM290400 29010KT P6SM SKC
     FM291000 29005KT P6SM FEW010
     FM291600 04005KT P6SM SKC
     FM292100 31016KT P6SM SKC
     FM300400 29010KT P6SM SKC=



000
FTUS46 KMTR 282335
TAFSNS
TAF
KSNS 282335Z 2900/2924 30013KT P6SM SKC
     FM290500 31006KT P6SM SKC
     FM291000 00000KT 6SM BR SKC
      TEMPO 2913/2916 VRB03KT 4SM BR OVC004
     FM291700 VRB03KT P6SM SKC
     FM291900 29009KT P6SM SKC
     FM292100 30013KT P6SM SKC=



000
FTUS46 KMTR 282335
TAFSFO
TAF
KSFO 282335Z 2900/3006 30019KT P6SM FEW180
     FM290400 29010KT P6SM SKC
     FM291000 29005KT P6SM FEW010
     FM291600 04005KT P6SM SKC
     FM292100 31016KT P6SM SKC
     FM300400 29010KT P6SM SKC=



000
FTUS46 KMTR 282335
TAFOAK
TAF
KOAK 282335Z 2900/3006 30012KT P6SM SKC
     FM290300 29008KT P6SM SKC
     FM290900 VRB03KT P6SM FEW010
     FM291700 25004KT P6SM SKC
     FM292000 30009KT P6SM SKC
     FM292200 30013KT P6SM SKC
     FM300400 30006KT P6SM SKC=



000
FTUS46 KMTR 282335
TAFSJC
TAF
KSJC 282335Z 2900/2924 31015KT P6SM SKC
     FM290300 29010KT P6SM SKC
     FM290500 25005KT P6SM SKC
     FM290700 00000KT P6SM SKC
     FM292000 31010KT P6SM SKC=



000
FTUS46 KMTR 282335
TAFLVK
TAF
KLVK 282335Z 2900/2924 27014KT P6SM SKC
     FM290500 00000KT P6SM SKC
     FM291900 21005KT P6SM SKC
     FM292100 26010KT P6SM SKC=



000
FTUS46 KMTR 282335
TAFSTS
TAF
KSTS 282335Z 2900/2924 20009G17KT P6SM SKC
     FM290300 17005KT P6SM SKC
     FM291200 00000KT 6SM BR SKC
     FM291700 VRB03KT P6SM SKC
     FM291900 20009KT P6SM SKC=



000
FTUS46 KMTR 282335
TAFMRY
TAF
KMRY 282335Z 2900/2924 23009KT P6SM SKC
     FM290500 00000KT P6SM SKC
      TEMPO 2913/2916 VRB03KT 1SM BR VV001
     FM291700 VRB03KT P6SM SKC
     FM292000 26008KT P6SM SKC=



000
FTUS46 KMTR 282051 AAA
TAFSFO
TAF AMD
KSFO 282051Z 2821/2924 30016G22KT P6SM SKC
     FM290400 28015KT P6SM SKC
     FM290600 29010KT P6SM SKC
     FM290900 29005KT P6SM FEW010
     FM292000 31016G22KT P6SM SKC=



000
FTUS46 KMTR 281729
TAFOAK
TAF
KOAK 281729Z 2818/2924 26007KT P6SM SKC
     FM282100 29012KT P6SM SKC
     FM290300 29008KT P6SM SKC
     FM290900 VRB03KT P6SM FEW010
     FM292000 30012KT P6SM SKC=



000
FTUS46 KMTR 281729
TAFLVK
TAF
KLVK 281729Z 2818/2918 29005KT P6SM SKC
     FM282100 28011KT P6SM SKC
     FM290500 00000KT P6SM SKC=



000
FTUS46 KMTR 281729
TAFSNS
TAF
KSNS 281729Z 2818/2918 28007KT P6SM SKC
     FM282000 28012KT P6SM SKC
     FM290500 32006KT P6SM SKC
     FM291300 VRB02KT 2SM BR OVC004
     FM291500 VRB03KT P6SM SKC=



000
FTUS46 KMTR 281729
TAFSFO
TAF
KSFO 281729Z 2818/2924 04004KT P6SM SKC
     FM282100 30017G24KT P6SM SKC
     FM290400 28015KT P6SM SKC
     FM290600 29010KT P6SM SKC
     FM290900 29005KT P6SM FEW010
     FM292000 31016G22KT P6SM SKC=



000
FTUS46 KMTR 281729
TAFMRY
TAF
KMRY 281729Z 2818/2918 VRB03KT P6SM SKC
     FM281900 29009KT P6SM SKC
     FM290500 00000KT P6SM SKC
     FM291400 VRB02KT 2SM BR BKN003
     FM291500 VRB03KT P6SM SKC=



000
FTUS46 KMTR 281729
TAFLVK
TAF
KLVK 281729Z 2818/2918 29005KT P6SM SKC
     FM282100 28011KT P6SM SKC
     FM290500 00000KT P6SM SKC=



000
FTUS46 KMTR 281729
TAFSNS
TAF
KSNS 281729Z 2818/2918 28007KT P6SM SKC
     FM282000 28012KT P6SM SKC
     FM290500 32006KT P6SM SKC
     FM291300 VRB02KT 2SM BR OVC004
     FM291500 VRB03KT P6SM SKC=



000
FTUS46 KMTR 281729
TAFSTS
TAF
KSTS 281729Z 2818/2918 VRB05KT P6SM SKC
     FM282100 20009KT P6SM SKC
     FM290300 VRB04KT P6SM SKC
     FM291400 00000KT 2SM BR BKN003
     FM291500 VRB02KT P6SM SKC=



000
FTUS46 KMTR 281729
TAFOAK
TAF
KOAK 281729Z 2818/2924 26007KT P6SM SKC
     FM282100 29012KT P6SM SKC
     FM290300 29008KT P6SM SKC
     FM290900 VRB03KT P6SM FEW010
     FM292000 30012KT P6SM SKC=



000
FTUS46 KMTR 281729
TAFSJC
TAF
KSJC 281729Z 2818/2918 VRB03KT P6SM SKC
     FM282100 30011KT P6SM SKC
     FM290500 VRB03KT P6SM SKC
     FM291200 VRB02KT P6SM FEW010=



000
FTUS46 KMTR 281729
TAFMRY
TAF
KMRY 281729Z 2818/2918 VRB03KT P6SM SKC
     FM281900 29009KT P6SM SKC
     FM290500 00000KT P6SM SKC
     FM291400 VRB02KT 2SM BR BKN003
     FM291500 VRB03KT P6SM SKC=



000
FTUS46 KMTR 281729
TAFSFO
TAF
KSFO 281729Z 2818/2924 04004KT P6SM SKC
     FM282100 30017G24KT P6SM SKC
     FM290400 28015KT P6SM SKC
     FM290600 29010KT P6SM SKC
     FM290900 29005KT P6SM FEW010
     FM292000 31016G22KT P6SM SKC=



000
FTUS46 KMTR 281729
TAFSTS
TAF
KSTS 281729Z 2818/2918 VRB05KT P6SM SKC
     FM282100 20009KT P6SM SKC
     FM290300 VRB04KT P6SM SKC
     FM291400 00000KT 2SM BR BKN003
     FM291500 VRB02KT P6SM SKC=



000
FTUS46 KMTR 281729
TAFSJC
TAF
KSJC 281729Z 2818/2918 VRB03KT P6SM SKC
     FM282100 30011KT P6SM SKC
     FM290500 VRB03KT P6SM SKC
     FM291200 VRB02KT P6SM FEW010=



000
FTUS46 KMTR 281501 AAA
TAFSFO
TAF AMD
KSFO 281501Z 2815/2918 04004KT P6SM SKC
     FM282100 30017G24KT P6SM SKC
     FM290400 28015KT P6SM SKC
     FM290600 29010KT P6SM SKC
     FM290900 29006KT P6SM SKC=



000
FTUS46 KMTR 281358 AAA
TAFMRY
TAF AMD
KMRY 281358Z 2814/2912 07004KT P6SM SKC
      TEMPO 2814/2815 3/4SM BR VV001
     FM281600 VRB03KT P6SM SKC
     FM281900 29009KT P6SM SKC
     FM290500 00000KT P6SM SKC=



000
FTUS46 KMTR 281349 AAA
TAFSNS
TAF AMD
KSNS 281349Z 2814/2912 00000KT 4SM BR BKN005
     FM281530 00000KT P6SM SKC
     FM281800 28007KT P6SM SKC
     FM282000 28012KT P6SM SKC
     FM290500 32006KT P6SM SKC=



000
FTUS46 KMTR 281349 AAA
TAFSNS
TAF AMD
KSNS 281349Z 2814/2912 00000KT 4SM BR BKN005
     FM281530 00000KT P6SM SKC
     FM281800 28007KT P6SM SKC
     FM282000 28012KT P6SM SKC
     FM290500 32006KT P6SM SKC=



000
FTUS46 KMTR 281120
TAFMRY
TAF
KMRY 281120Z 2812/2912 06003KT P6SM SKC
     FM281600 VRB03KT P6SM SKC
     FM281900 29009KT P6SM SKC
     FM290500 00000KT P6SM SKC=



000
FTUS46 KMTR 281120
TAFLVK
TAF
KLVK 281120Z 2812/2912 00000KT P6SM SKC
     FM281700 29005KT P6SM SKC
     FM282100 27008KT P6SM SKC
     FM290500 00000KT P6SM SKC=



000
FTUS46 KMTR 281120
TAFSNS
TAF
KSNS 281120Z 2812/2912 33006KT P6SM SKC
     FM281500 00000KT P6SM SKC
     FM281800 28007KT P6SM SKC
     FM282000 28012KT P6SM SKC
     FM290500 32006KT P6SM SKC=



000
FTUS46 KMTR 281120
TAFSJC
TAF
KSJC 281120Z 2812/2912 VRB03KT P6SM SKC
     FM282100 30011KT P6SM SKC
     FM290500 27004KT P6SM SKC=



000
FTUS46 KMTR 281120
TAFSFO
TAF
KSFO 281120Z 2812/2918 28005KT P6SM SKC
     FM281500 04004KT P6SM SKC
     FM282100 30017G24KT P6SM SKC
     FM290400 28015KT P6SM SKC
     FM290600 29010KT P6SM SKC
     FM290900 29006KT P6SM SKC=



000
FTUS46 KMTR 281120
TAFSTS
TAF
KSTS 281120Z 2812/2912 17003KT P6SM SKC
     FM281600 VRB05KT P6SM SKC
     FM281900 20009KT P6SM SKC
     FM290300 16005KT P6SM SKC=



000
FTUS46 KMTR 281120
TAFOAK
TAF
KOAK 281120Z 2812/2918 VRB03KT P6SM SKC
     FM281800 29007KT P6SM SKC
     FM282100 29012KT P6SM SKC
     FM290300 29008KT P6SM SKC
     FM290900 VRB04KT P6SM FEW010=



000
FTUS46 KMTR 280907 AAA
TAFSFO
TAF AMD
KSFO 280907Z 2809/2912 30009KT P6SM SKC
     FM281300 28005KT P6SM SKC
     FM281500 04004KT P6SM SKC
     FM282100 30017G24KT P6SM SKC
     FM290400 28015KT P6SM SKC
     FM290600 29010KT P6SM SKC=



000
FTUS46 KMTR 280907 AAA
TAFSFO
TAF AMD
KSFO 280907Z 2809/2912 30009KT P6SM SKC
     FM281300 28005KT P6SM SKC
     FM281500 04004KT P6SM SKC
     FM282100 30017G24KT P6SM SKC
     FM290400 28015KT P6SM SKC
     FM290600 29010KT P6SM SKC=



000
FTUS46 KMTR 280528
TAFMRY
TAF
KMRY 280528Z 2806/2906 00000KT P6SM SKC
     FM280800 00000KT P6SM FEW005
     FM281600 VRB03KT P6SM SKC
     FM281900 29009KT P6SM SKC
     FM290500 00000KT P6SM SKC=



000
FTUS46 KMTR 280528
TAFSFO
TAF
KSFO 280528Z 2806/2912 30011KT P6SM SKC
     FM281300 28005KT P6SM SKC
     FM281500 04004KT P6SM SKC
     FM282100 30017G24KT P6SM SKC
     FM290400 28015KT P6SM SKC
     FM290600 29010KT P6SM SKC=



000
FTUS46 KMTR 280528
TAFSTS
TAF
KSTS 280528Z 2806/2906 17003KT P6SM SKC
     FM280700 00000KT P6SM SKC
     FM281600 VRB05KT P6SM SKC
     FM281900 20009KT P6SM SKC
     FM290300 16005KT P6SM SKC=



000
FTUS46 KMTR 280528
TAFLVK
TAF
KLVK 280528Z 2806/2906 00000KT P6SM SKC
     FM281700 VRB05KT P6SM SKC
     FM282100 27008KT P6SM SKC
     FM290500 00000KT P6SM SKC=



000
FTUS46 KMTR 280528
TAFOAK
TAF
KOAK 280528Z 2806/2912 30006KT P6SM SKC
     FM280900 VRB04KT P6SM FEW010
     FM282000 29007KT P6SM SKC
     FM282200 29012KT P6SM SKC
     FM290300 29008KT P6SM SKC
     FM290900 VRB04KT P6SM FEW010=



000
FTUS46 KMTR 280528
TAFSJC
TAF
KSJC 280528Z 2806/2906 24004KT P6SM SKC
     FM280900 00000KT P6SM SKC
     FM282100 30011KT P6SM SKC
     FM290500 27004KT P6SM SKC=



000
FTUS46 KMTR 280528
TAFSNS
TAF
KSNS 280528Z 2806/2906 33006KT P6SM SKC
     FM280900 VRB03KT 6SM BR FEW003
     FM281500 00000KT P6SM SKC
     FM281800 28007KT P6SM SKC
     FM282000 28012KT P6SM SKC
     FM290500 32006KT P6SM SKC=



000
FTUS46 KMTR 280312 AAA
TAFSFO
TAF AMD
KSFO 280312Z 2803/2906 28020KT P6SM SKC
     FM280400 28015KT P6SM SKC
     FM280600 28010KT P6SM SKC
     FM281300 28005KT P6SM SKC
     FM281500 04004KT P6SM SKC
     FM282100 30017G24KT P6SM SKC
     FM290400 28015KT P6SM SKC=



000
FTUS46 KMTR 280312 AAA
TAFSFO
TAF AMD
KSFO 280312Z 2803/2906 28020KT P6SM SKC
     FM280400 28015KT P6SM SKC
     FM280600 28010KT P6SM SKC
     FM281300 28005KT P6SM SKC
     FM281500 04004KT P6SM SKC
     FM282100 30017G24KT P6SM SKC
     FM290400 28015KT P6SM SKC=



000
FTUS46 KMTR 272336
TAFSNS
TAF
KSNS 272336Z 2800/2824 28011KT P6SM SKC
     FM280500 29005KT P6SM SKC
     FM280900 VRB03KT 6SM BR FEW003
     FM281500 12004KT P6SM SKC
     FM281800 28007KT P6SM SKC
     FM282000 28012KT P6SM SKC=



000
FTUS46 KMTR 272336
TAFOAK
TAF
KOAK 272336Z 2800/2906 29016G21KT P6SM SKC
     FM280300 29008KT P6SM SKC
     FM280900 VRB04KT P6SM FEW010
     FM282000 29007KT P6SM SKC
     FM282200 29012KT P6SM SKC
     FM290300 29008KT P6SM SKC=



000
FTUS46 KMTR 272336
TAFSTS
TAF
KSTS 272336Z 2800/2824 19010KT P6SM SKC
     FM280300 16005KT P6SM SKC
     FM280700 00000KT P6SM SKC
     FM281600 VRB05KT P6SM SKC
     FM281900 20009KT P6SM SKC=



000
FTUS46 KMTR 272336
TAFSJC
TAF
KSJC 272336Z 2800/2824 30016KT P6SM SKC
     FM280200 32008KT P6SM SKC
     FM280400 33005KT P6SM SKC
     FM280600 00000KT P6SM SKC
     FM282100 30011KT P6SM SKC=



000
FTUS46 KMTR 272336
TAFLVK
TAF
KLVK 272336Z 2800/2824 28012KT P6SM SKC
     FM280400 30008KT P6SM SKC
     FM281000 00000KT P6SM SKC
     FM281700 VRB05KT P6SM SKC
     FM282100 27006KT P6SM SKC=



000
FTUS46 KMTR 272336
TAFSJC
TAF
KSJC 272336Z 2800/2824 30016KT P6SM SKC
     FM280200 32008KT P6SM SKC
     FM280400 33005KT P6SM SKC
     FM280600 00000KT P6SM SKC
     FM282100 30011KT P6SM SKC=



000
FTUS46 KMTR 272336
TAFLVK
TAF
KLVK 272336Z 2800/2824 28012KT P6SM SKC
     FM280400 30008KT P6SM SKC
     FM281000 00000KT P6SM SKC
     FM281700 VRB05KT P6SM SKC
     FM282100 27006KT P6SM SKC=



000
FTUS46 KMTR 272336
TAFSNS
TAF
KSNS 272336Z 2800/2824 28011KT P6SM SKC
     FM280500 29005KT P6SM SKC
     FM280900 VRB03KT 6SM BR FEW003
     FM281500 12004KT P6SM SKC
     FM281800 28007KT P6SM SKC
     FM282000 28012KT P6SM SKC=



000
FTUS46 KMTR 272336
TAFSTS
TAF
KSTS 272336Z 2800/2824 19010KT P6SM SKC
     FM280300 16005KT P6SM SKC
     FM280700 00000KT P6SM SKC
     FM281600 VRB05KT P6SM SKC
     FM281900 20009KT P6SM SKC=



000
FTUS46 KMTR 272336
TAFOAK
TAF
KOAK 272336Z 2800/2906 29016G21KT P6SM SKC
     FM280300 29008KT P6SM SKC
     FM280900 VRB04KT P6SM FEW010
     FM282000 29007KT P6SM SKC
     FM282200 29012KT P6SM SKC
     FM290300 29008KT P6SM SKC=



000
FTUS46 KMTR 272336
TAFSFO
TAF
KSFO 272336Z 2800/2906 29018G25KT P6SM SKC
     FM280400 28015KT P6SM SKC
     FM280600 28010KT P6SM SKC
     FM281300 28005KT P6SM SKC
     FM281500 04004KT P6SM SKC
     FM282100 30017G24KT P6SM SKC
     FM290400 28015KT P6SM SKC=



000
FTUS46 KMTR 272336
TAFMRY
TAF
KMRY 272336Z 2800/2824 27012G16KT P6SM SKC
     FM280300 23004KT P6SM FEW008
     FM280800 00000KT P6SM FEW005
     FM281600 VRB03KT P6SM SKC
     FM281900 29009KT P6SM SKC=



000
FTUS46 KMTR 272336
TAFMRY
TAF
KMRY 272336Z 2800/2824 27012G16KT P6SM SKC
     FM280300 23004KT P6SM FEW008
     FM280800 00000KT P6SM FEW005
     FM281600 VRB03KT P6SM SKC
     FM281900 29009KT P6SM SKC=



000
FTUS46 KMTR 272336
TAFSFO
TAF
KSFO 272336Z 2800/2906 29018G25KT P6SM SKC
     FM280400 28015KT P6SM SKC
     FM280600 28010KT P6SM SKC
     FM281300 28005KT P6SM SKC
     FM281500 04004KT P6SM SKC
     FM282100 30017G24KT P6SM SKC
     FM290400 28015KT P6SM SKC=



000
FTUS46 KMTR 272001 AAA
TAFSNS
TAF AMD
KSNS 272001Z 2720/2818 29015KT P6SM SKC
     FM280200 27010KT P6SM SKC
     FM280600 29005KT P6SM SKC
     FM280900 VRB03KT 6SM BR FEW004
     FM281500 12004KT P6SM SKC=



000
FTUS46 KMTR 271959 AAA
TAFMRY
TAF AMD
KMRY 271959Z 2720/2818 28012G15KT P6SM SKC
     FM280300 24004KT P6SM FEW008
     FM281000 21003KT 6SM BR FEW004
     FM281600 VRB03KT P6SM SKC=



000
FTUS46 KMTR 271958 AAA
TAFSFO
TAF AMD
KSFO 271958Z 2720/2824 29009KT P6SM SKC
     FM272130 29015G23KT P6SM SKC
     FM272300 29020G25KT P6SM SKC
     FM280300 29015KT P6SM SKC
     FM280600 28010KT P6SM SKC
     FM281100 28004KT P6SM SKC
     FM281700 04004KT P6SM SKC
     FM282100 30015KT P6SM SKC=



000
FTUS46 KMTR 271735
TAFMRY
TAF
KMRY 271735Z 2718/2818 29005KT P6SM FEW008
     FM272100 28010KT P6SM FEW010
     FM280300 24004KT P6SM FEW008
     FM281000 21003KT 6SM BR FEW004
     FM281600 VRB03KT P6SM SKC=



000
FTUS46 KMTR 271735
TAFOAK
TAF
KOAK 271735Z 2718/2824 24008KT P6SM SKC
     FM272100 28014KT P6SM SKC
     FM280400 31008KT P6SM SKC
     FM280900 VRB03KT 6SM BR FEW004
     FM281500 01003KT P6SM SKC
     FM281800 28006KT P6SM SKC
     FM282100 30010KT P6SM SKC=



000
FTUS46 KMTR 271735
TAFSNS
TAF
KSNS 271735Z 2718/2818 29006KT P6SM SKC
     FM272000 29010KT P6SM SKC
     FM272200 29015KT P6SM SKC
     FM280200 27010KT P6SM SKC
     FM280600 29005KT P6SM SKC
     FM280900 VRB03KT 6SM BR FEW004
     FM281500 12004KT P6SM SKC=



000
FTUS46 KMTR 271735
TAFLVK
TAF
KLVK 271735Z 2718/2818 28005KT P6SM SKC
     FM272000 27012G19KT P6SM SKC
     FM280400 30008KT P6SM SKC
     FM280800 VRB03KT P6SM SKC=



000
FTUS46 KMTR 271735
TAFSFO
TAF
KSFO 271735Z 2718/2824 04004KT P6SM SKC
     FM272100 29015G23KT P6SM SKC
     FM272300 29020G25KT P6SM SKC
     FM280300 29015KT P6SM SKC
     FM280600 28010KT P6SM SKC
     FM281100 28004KT P6SM SKC
     FM281700 04004KT P6SM SKC
     FM282100 30015KT P6SM SKC=



000
FTUS46 KMTR 271735
TAFSJC
TAF
KSJC 271735Z 2718/2818 24004KT P6SM SKC
     FM272000 31010KT P6SM SKC
     FM272200 31015G20KT P6SM SKC
     FM280200 32008KT P6SM SKC
     FM280400 33005KT P6SM SKC
     FM280600 00000KT P6SM SKC=



000
FTUS46 KMTR 271735
TAFSTS
TAF
KSTS 271735Z 2718/2818 19008KT P6SM SKC
     FM272300 16010KT P6SM SKC
     FM280500 VRB03KT P6SM SKC
     FM281400 00000KT 4SM BR SKC
     FM281600 00000KT P6SM SKC=



000
FTUS46 KMTR 271636 AAB
TAFMRY
TAF AMD
KMRY 271636Z 2717/2812 20006KT P6SM SCT011
     FM271800 29008KT P6SM SKC
     FM280300 24005KT P6SM SKC
     FM280800 22004KT P6SM OVC005=



000
FTUS46 KMTR 271636 AAB
TAFSNS
TAF AMD
KSNS 271636Z 2717/2812 29004KT P6SM SCT012
     FM271800 29008KT P6SM SKC
     FM272100 29010KT P6SM SKC
     FM280400 29005KT P6SM SKC=



000
FTUS46 KMTR 271500 AAA
TAFSTS
TAF AMD
KSTS 271500Z 2715/2812 00000KT P6SM SKC
     FM271800 19008KT P6SM SKC
     FM272300 16010KT P6SM SKC
     FM280500 VRB03KT P6SM SKC=



000
FTUS46 KMTR 271500 AAA
TAFSTS
TAF AMD
KSTS 271500Z 2715/2812 00000KT P6SM SKC
     FM271800 19008KT P6SM SKC
     FM272300 16010KT P6SM SKC
     FM280500 VRB03KT P6SM SKC=



000
FTUS46 KMTR 271457 AAA
TAFOAK
TAF AMD
KOAK 271457Z 2715/2818 22005KT P6SM SKC
     FM271700 26008KT P6SM SKC
     FM272100 28012KT P6SM SKC
     FM280400 31005KT P6SM SKC
     FM281100 VRB03KT P6SM FEW010=



000
FTUS46 KMTR 271449 AAA
TAFSFO
TAF AMD
KSFO 271449Z 2715/2818 04004KT P6SM SKC
     FM272100 29015G23KT P6SM SKC
     FM272300 29020G25KT P6SM SKC
     FM280300 29015KT P6SM SKC
     FM280600 28010KT P6SM SKC
     FM281100 28005KT P6SM SKC=



000
FTUS46 KMTR 271340 AAA
TAFMRY
TAF AMD
KMRY 271340Z 2714/2812 20006KT P6SM BKN011
     FM271700 29008KT P6SM SKC
     FM280300 24005KT P6SM SKC
     FM280800 22004KT P6SM OVC005=



000
FTUS46 KMTR 271340 AAA
TAFSNS
TAF AMD
KSNS 271340Z 2714/2812 27004KT P6SM OVC012
     FM271700 29004KT P6SM SKC
     FM272100 29010KT P6SM SKC
     FM280400 29005KT P6SM SKC=



000
FTUS46 KMTR 271340 AAA
TAFSNS
TAF AMD
KSNS 271340Z 2714/2812 27004KT P6SM OVC012
     FM271700 29004KT P6SM SKC
     FM272100 29010KT P6SM SKC
     FM280400 29005KT P6SM SKC=



000
FTUS46 KMTR 271340 AAA
TAFMRY
TAF AMD
KMRY 271340Z 2714/2812 20006KT P6SM BKN011
     FM271700 29008KT P6SM SKC
     FM280300 24005KT P6SM SKC
     FM280800 22004KT P6SM OVC005=



000
FTUS46 KMTR 271120
TAFSNS
TAF
KSNS 271120Z 2712/2812 33005KT P6SM SKC
     FM271700 29004KT P6SM SKC
     FM272100 29010KT P6SM SKC
     FM280400 29005KT P6SM SKC=



000
FTUS46 KMTR 271120
TAFSTS
TAF
KSTS 271120Z 2712/2812 33010KT P6SM SKC
     FM280300 17008KT P6SM SKC=



000
FTUS46 KMTR 271120
TAFOAK
TAF
KOAK 271120Z 2712/2818 33004KT P6SM SKC
     FM271300 03004KT P6SM FEW008
     FM272000 28012KT P6SM SKC
     FM280400 31005KT P6SM SKC
     FM281100 VRB03KT P6SM FEW010=



000
FTUS46 KMTR 271120
TAFSJC
TAF
KSJC 271120Z 2712/2812 VRB03KT P6SM SKC
     FM272100 33012KT P6SM SKC
     FM280400 33005KT P6SM SKC=



000
FTUS46 KMTR 271120
TAFMRY
TAF
KMRY 271120Z 2712/2812 17004KT P6SM FEW010
     FM271500 29005KT P6SM FEW010
     FM271700 29008KT P6SM SKC
     FM280300 24005KT P6SM SKC
     FM280800 22004KT P6SM OVC005=



000
FTUS46 KMTR 271120
TAFSTS
TAF
KSTS 271120Z 2712/2812 33010KT P6SM SKC
     FM280300 17008KT P6SM SKC=



000
FTUS46 KMTR 271120
TAFOAK
TAF
KOAK 271120Z 2712/2818 33004KT P6SM SKC
     FM271300 03004KT P6SM FEW008
     FM272000 28012KT P6SM SKC
     FM280400 31005KT P6SM SKC
     FM281100 VRB03KT P6SM FEW010=



000
FTUS46 KMTR 271120
TAFSFO
TAF
KSFO 271120Z 2712/2818 28010KT P6SM FEW012
     FM272100 29015G23KT P6SM SKC
     FM280400 29007KT P6SM SKC=



000
FTUS46 KMTR 271120
TAFLVK
TAF
KLVK 271120Z 2712/2812 VRB03KT P6SM SKC
     FM272000 27012G19KT P6SM SKC
     FM280400 30005KT P6SM SKC=



000
FTUS46 KMTR 271120
TAFLVK
TAF
KLVK 271120Z 2712/2812 VRB03KT P6SM SKC
     FM272000 27012G19KT P6SM SKC
     FM280400 30005KT P6SM SKC=



000
FTUS46 KMTR 271120
TAFSJC
TAF
KSJC 271120Z 2712/2812 VRB03KT P6SM SKC
     FM272100 33012KT P6SM SKC
     FM280400 33005KT P6SM SKC=



000
FTUS46 KMTR 271120
TAFSNS
TAF
KSNS 271120Z 2712/2812 33005KT P6SM SKC
     FM271700 29004KT P6SM SKC
     FM272100 29010KT P6SM SKC
     FM280400 29005KT P6SM SKC=



000
FTUS46 KMTR 271120
TAFMRY
TAF
KMRY 271120Z 2712/2812 17004KT P6SM FEW010
     FM271500 29005KT P6SM FEW010
     FM271700 29008KT P6SM SKC
     FM280300 24005KT P6SM SKC
     FM280800 22004KT P6SM OVC005=



000
FTUS46 KMTR 271120
TAFSFO
TAF
KSFO 271120Z 2712/2818 28010KT P6SM FEW012
     FM272100 29015G23KT P6SM SKC
     FM280400 29007KT P6SM SKC=



000
FTUS46 KMTR 270903 AAA
TAFSNS
TAF AMD
KSNS 270903Z 2709/2806 31005KT P6SM SKC
     FM271000 27006KT P6SM BKN015
     FM271500 VRB03KT P6SM SCT015
     FM271700 29004KT P6SM SKC
     FM272100 29010KT P6SM SKC
     FM280400 29005KT P6SM SKC=



000
FTUS46 KMTR 270903 AAA
TAFSNS
TAF AMD
KSNS 270903Z 2709/2806 31005KT P6SM SKC
     FM271000 27006KT P6SM BKN015
     FM271500 VRB03KT P6SM SCT015
     FM271700 29004KT P6SM SKC
     FM272100 29010KT P6SM SKC
     FM280400 29005KT P6SM SKC=



000
FTUS46 KMTR 270902 AAA
TAFMRY
TAF AMD
KMRY 270902Z 2709/2806 17004KT P6SM SKC
     FM271000 VRB03KT P6SM BKN010
     FM271500 29005KT P6SM SCT010
     FM271700 29008KT P6SM SKC
     FM280300 24005KT P6SM SKC=



000
FTUS46 KMTR 270902 AAA
TAFSFO
TAF AMD
KSFO 270902Z 2709/2812 28013KT P6SM FEW020
     FM271200 33006KT P6SM FEW015
     FM272100 29012KT P6SM SKC
     FM280400 VRB03KT P6SM SKC=



000
FTUS46 KMTR 270902 AAA
TAFSFO
TAF AMD
KSFO 270902Z 2709/2812 28013KT P6SM FEW020
     FM271200 33006KT P6SM FEW015
     FM272100 29012KT P6SM SKC
     FM280400 VRB03KT P6SM SKC=



000
FTUS46 KMTR 270902 AAA
TAFMRY
TAF AMD
KMRY 270902Z 2709/2806 17004KT P6SM SKC
     FM271000 VRB03KT P6SM BKN010
     FM271500 29005KT P6SM SCT010
     FM271700 29008KT P6SM SKC
     FM280300 24005KT P6SM SKC=



000
FTUS46 KMTR 270520
TAFSJC
TAF
KSJC 270520Z 2706/2806 31008KT P6SM SKC
     FM270900 33003KT P6SM SKC
     FM272100 33012KT P6SM SKC
     FM280400 33005KT P6SM SKC=



000
FTUS46 KMTR 270520
TAFLVK
TAF
KLVK 270520Z 2706/2806 29010KT P6SM SKC
     FM270700 27005KT P6SM SKC
     FM272000 27012KT P6SM SKC
     FM280400 27005KT P6SM SKC=



000
FTUS46 KMTR 270520
TAFSFO
TAF
KSFO 270520Z 2706/2812 27010KT P6SM FEW010
     FM271200 33006KT P6SM FEW010
     FM272100 29012KT P6SM SKC
     FM280400 VRB03KT P6SM SKC=



000
FTUS46 KMTR 270520
TAFSNS
TAF
KSNS 270520Z 2706/2806 27006KT P6SM BKN015
     FM271500 VRB03KT P6SM SCT015
     FM271700 29004KT P6SM SKC
     FM272100 29010KT P6SM SKC
     FM280400 29005KT P6SM SKC=



000
FTUS46 KMTR 270520
TAFSTS
TAF
KSTS 270520Z 2706/2806 33005KT P6SM SKC=



000
FTUS46 KMTR 270520
TAFOAK
TAF
KOAK 270520Z 2706/2812 26006KT P6SM SKC
     FM271300 03004KT P6SM FEW008
     FM272000 28012KT P6SM SKC
     FM280400 31005KT P6SM SKC=



000
FTUS46 KMTR 270520
TAFMRY
TAF
KMRY 270520Z 2706/2806 23005KT P6SM SCT012
     FM270800 VRB03KT P6SM BKN010
     FM271500 29005KT P6SM SCT010
     FM271700 29008KT P6SM SKC
     FM280300 24005KT P6SM SKC=



000
FTUS46 KMTR 270520
TAFLVK
TAF
KLVK 270520Z 2706/2806 29010KT P6SM SKC
     FM270700 27005KT P6SM SKC
     FM272000 27012KT P6SM SKC
     FM280400 27005KT P6SM SKC=



000
FTUS46 KMTR 270520
TAFSFO
TAF
KSFO 270520Z 2706/2812 27010KT P6SM FEW010
     FM271200 33006KT P6SM FEW010
     FM272100 29012KT P6SM SKC
     FM280400 VRB03KT P6SM SKC=



000
FTUS46 KMTR 270520
TAFSJC
TAF
KSJC 270520Z 2706/2806 31008KT P6SM SKC
     FM270900 33003KT P6SM SKC
     FM272100 33012KT P6SM SKC
     FM280400 33005KT P6SM SKC=



000
FTUS46 KMTR 270520
TAFSNS
TAF
KSNS 270520Z 2706/2806 27006KT P6SM BKN015
     FM271500 VRB03KT P6SM SCT015
     FM271700 29004KT P6SM SKC
     FM272100 29010KT P6SM SKC
     FM280400 29005KT P6SM SKC=



000
FTUS46 KMTR 270520
TAFMRY
TAF
KMRY 270520Z 2706/2806 23005KT P6SM SCT012
     FM270800 VRB03KT P6SM BKN010
     FM271500 29005KT P6SM SCT010
     FM271700 29008KT P6SM SKC
     FM280300 24005KT P6SM SKC=



000
FTUS46 KMTR 270520
TAFSTS
TAF
KSTS 270520Z 2706/2806 33005KT P6SM SKC=



000
FTUS46 KMTR 270520
TAFOAK
TAF
KOAK 270520Z 2706/2812 26006KT P6SM SKC
     FM271300 03004KT P6SM FEW008
     FM272000 28012KT P6SM SKC
     FM280400 31005KT P6SM SKC=



    US Dept of Commerce
    National Oceanic and Atmospheric Administration
    National Weather Service
    1325 East West Highway
    Silver Spring, MD 20910
    Page Author: NWS Internet Services Team
Disclaimer
Information Quality
Credits
Glossary
Privacy Policy
Freedom of Information Act (FOIA)
About Us
Career Opportunities